sensor_id;sensor_type;location;lat;lon;timestamp;temperature;humidity
33699;DHT22;20032;52.436;13.312;2024-01-07T00:02:13;0.20;99.90
33699;DHT22;20032;52.436;13.312;2024-01-07T00:04:40;0.30;99.90
33699;DHT22;20032;52.436;13.312;2024-01-07T00:07:06;0.20;99.90
33699;DHT22;20032;52.436;13.312;2024-01-07T00:09:31;0.20;99.90
33699;DHT22;20032;52.436;13.312;2024-01-07T00:11:57;0.20;99.90
33699;DHT22;20032;52.436;13.312;2024-01-07T00:14:22;0.20;99.90
33699;DHT22;20032;52.436;13.312;2024-01-07T00:16:48;0.20;99.90
33699;DHT22;20032;52.436;13.312;2024-01-07T00:19:13;0.20;99.90
33699;DHT22;20032;52.436;13.312;2024-01-07T00:21:39;0.20;99.90
33699;DHT22;20032;52.436;13.312;2024-01-07T00:24:04;0.10;99.90
33699;DHT22;20032;52.436;13.312;2024-01-07T00:26:30;0.10;99.90
33699;DHT22;20032;52.436;13.312;2024-01-07T00:28:56;0.10;99.90
33699;DHT22;20032;52.436;13.312;2024-01-07T00:31:21;0.10;99.90
33699;DHT22;20032;52.436;13.312;2024-01-07T00:33:47;0.10;99.90
33699;DHT22;20032;52.436;13.312;2024-01-07T00:36:12;0.10;99.90
33699;DHT22;20032;52.436;13.312;2024-01-07T00:38:38;0.20;99.90
33699;DHT22;20032;52.436;13.312;2024-01-07T00:41:03;0.20;99.90
33699;DHT22;20032;52.436;13.312;2024-01-07T00:43:29;0.20;99.90
33699;DHT22;20032;52.436;13.312;2024-01-07T00:45:54;0.20;99.90
33699;DHT22;20032;52.436;13.312;2024-01-07T00:48:20;0.20;99.90
33699;DHT22;20032;52.436;13.312;2024-01-07T00:50:45;0.20;99.90
33699;DHT22;20032;52.436;13.312;2024-01-07T00:53:10;0.20;99.90
33699;DHT22;20032;52.436;13.312;2024-01-07T00:55:36;0.20;99.90
33699;DHT22;20032;52.436;13.312;2024-01-07T00:58:02;0.20;99.90
33699;DHT22;20032;52.436;13.312;2024-01-07T01:00:28;0.10;99.90
33699;DHT22;20032;52.436;13.312;2024-01-07T01:02:54;0.10;99.90
33699;DHT22;20032;52.436;13.312;2024-01-07T01:05:19;0.10;99.90
33699;DHT22;20032;52.436;13.312;2024-01-07T01:07:45;0.10;99.90
33699;DHT22;20032;52.436;13.312;2024-01-07T01:10:10;0.00;99.90
33699;DHT22;20032;52.436;13.312;2024-01-07T01:12:36;-0.10;99.90
33699;DHT22;20032;52.436;13.312;2024-01-07T01:15:03;-0.20;99.90
33699;DHT22;20032;52.436;13.312;2024-01-07T01:17:29;-0.10;99.90
33699;DHT22;20032;52.436;13.312;2024-01-07T01:19:54;-0.10;99.90
33699;DHT22;20032;52.436;13.312;2024-01-07T01:22:20;-0.10;99.90
33699;DHT22;20032;52.436;13.312;2024-01-07T01:24:45;-0.10;99.90
33699;DHT22;20032;52.436;13.312;2024-01-07T01:27:12;-0.10;99.90
33699;DHT22;20032;52.436;13.312;2024-01-07T01:29:38;-0.10;99.90
33699;DHT22;20032;52.436;13.312;2024-01-07T01:32:05;-0.20;99.90
33699;DHT22;20032;52.436;13.312;2024-01-07T01:34:31;-0.20;99.90
33699;DHT22;20032;52.436;13.312;2024-01-07T01:36:57;-0.20;99.90
33699;DHT22;20032;52.436;13.312;2024-01-07T01:39:22;-0.20;99.90
33699;DHT22;20032;52.436;13.312;2024-01-07T01:41:48;-0.20;99.90
33699;DHT22;20032;52.436;13.312;2024-01-07T01:44:13;-0.20;99.90
33699;DHT22;20032;52.436;13.312;2024-01-07T01:46:38;-0.30;99.90
33699;DHT22;20032;52.436;13.312;2024-01-07T01:49:04;-0.40;99.90
33699;DHT22;20032;52.436;13.312;2024-01-07T01:51:30;-0.30;99.90
33699;DHT22;20032;52.436;13.312;2024-01-07T01:53:56;-0.40;99.90
33699;DHT22;20032;52.436;13.312;2024-01-07T01:56:27;-0.30;99.90
33699;DHT22;20032;52.436;13.312;2024-01-07T01:58:53;-0.40;99.90
33699;DHT22;20032;52.436;13.312;2024-01-07T02:01:18;-0.50;99.90
33699;DHT22;20032;52.436;13.312;2024-01-07T02:03:44;-0.50;99.90
33699;DHT22;20032;52.436;13.312;2024-01-07T02:06:09;-0.50;99.90
33699;DHT22;20032;52.436;13.312;2024-01-07T02:08:37;-0.50;99.90
33699;DHT22;20032;52.436;13.312;2024-01-07T02:11:19;-0.40;99.90
33699;DHT22;20032;52.436;13.312;2024-01-07T02:13:45;-0.40;99.90
33699;DHT22;20032;52.436;13.312;2024-01-07T02:16:11;-0.40;99.90
33699;DHT22;20032;52.436;13.312;2024-01-07T02:18:41;-0.50;99.90
33699;DHT22;20032;52.436;13.312;2024-01-07T02:21:08;-0.40;99.90
33699;DHT22;20032;52.436;13.312;2024-01-07T02:23:34;-0.50;99.90
33699;DHT22;20032;52.436;13.312;2024-01-07T02:26:00;-0.50;99.90
33699;DHT22;20032;52.436;13.312;2024-01-07T02:28:25;-0.60;99.90
33699;DHT22;20032;52.436;13.312;2024-01-07T02:30:51;-0.70;99.90
33699;DHT22;20032;52.436;13.312;2024-01-07T02:33:16;-0.70;99.90
33699;DHT22;20032;52.436;13.312;2024-01-07T02:35:43;-0.70;99.90
33699;DHT22;20032;52.436;13.312;2024-01-07T02:38:08;-0.60;99.90
33699;DHT22;20032;52.436;13.312;2024-01-07T02:40:33;-0.70;99.90
33699;DHT22;20032;52.436;13.312;2024-01-07T02:42:59;-0.70;99.90
33699;DHT22;20032;52.436;13.312;2024-01-07T02:45:24;-0.80;99.90
33699;DHT22;20032;52.436;13.312;2024-01-07T02:47:50;-0.80;99.90
33699;DHT22;20032;52.436;13.312;2024-01-07T02:50:16;-0.80;99.90
33699;DHT22;20032;52.436;13.312;2024-01-07T02:52:42;-0.80;99.90
33699;DHT22;20032;52.436;13.312;2024-01-07T02:55:08;-0.80;99.90
33699;DHT22;20032;52.436;13.312;2024-01-07T02:57:33;-0.90;99.90
33699;DHT22;20032;52.436;13.312;2024-01-07T02:59:59;-0.90;99.90
33699;DHT22;20032;52.436;13.312;2024-01-07T03:02:24;-0.90;99.90
33699;DHT22;20032;52.436;13.312;2024-01-07T03:04:50;-1.00;99.90
33699;DHT22;20032;52.436;13.312;2024-01-07T03:07:15;-1.00;99.90
33699;DHT22;20032;52.436;13.312;2024-01-07T03:09:41;-1.00;99.90
33699;DHT22;20032;52.436;13.312;2024-01-07T03:12:06;-1.10;99.90
33699;DHT22;20032;52.436;13.312;2024-01-07T03:14:32;-1.10;99.90
33699;DHT22;20032;52.436;13.312;2024-01-07T03:16:57;-1.20;99.90
33699;DHT22;20032;52.436;13.312;2024-01-07T03:19:23;-1.20;99.90
33699;DHT22;20032;52.436;13.312;2024-01-07T03:21:48;-1.20;99.90
33699;DHT22;20032;52.436;13.312;2024-01-07T03:24:14;-1.20;99.90
33699;DHT22;20032;52.436;13.312;2024-01-07T03:26:39;-1.20;99.90
33699;DHT22;20032;52.436;13.312;2024-01-07T03:29:05;-1.30;99.90
33699;DHT22;20032;52.436;13.312;2024-01-07T03:31:30;-1.30;99.90
33699;DHT22;20032;52.436;13.312;2024-01-07T03:33:56;-1.30;99.90
33699;DHT22;20032;52.436;13.312;2024-01-07T03:36:22;-1.30;99.90
33699;DHT22;20032;52.436;13.312;2024-01-07T03:38:47;-1.30;99.90
33699;DHT22;20032;52.436;13.312;2024-01-07T03:41:17;-1.40;99.90
33699;DHT22;20032;52.436;13.312;2024-01-07T03:43:44;-1.40;99.90
33699;DHT22;20032;52.436;13.312;2024-01-07T03:46:09;-1.30;99.90
33699;DHT22;20032;52.436;13.312;2024-01-07T03:48:35;-1.30;99.90
33699;DHT22;20032;52.436;13.312;2024-01-07T03:51:00;-1.30;99.90
33699;DHT22;20032;52.436;13.312;2024-01-07T03:53:25;-1.30;99.90
33699;DHT22;20032;52.436;13.312;2024-01-07T03:55:51;-1.40;99.90
33699;DHT22;20032;52.436;13.312;2024-01-07T03:58:16;-1.40;99.90
33699;DHT22;20032;52.436;13.312;2024-01-07T04:00:42;-1.40;99.90
33699;DHT22;20032;52.436;13.312;2024-01-07T04:03:07;-1.40;99.90
33699;DHT22;20032;52.436;13.312;2024-01-07T04:05:33;-1.40;99.90
33699;DHT22;20032;52.436;13.312;2024-01-07T04:08:00;-1.40;99.90
33699;DHT22;20032;52.436;13.312;2024-01-07T04:10:26;-1.40;99.90
33699;DHT22;20032;52.436;13.312;2024-01-07T04:12:52;-1.40;99.90
33699;DHT22;20032;52.436;13.312;2024-01-07T04:15:17;-1.40;99.90
33699;DHT22;20032;52.436;13.312;2024-01-07T04:17:43;-1.40;99.90
33699;DHT22;20032;52.436;13.312;2024-01-07T04:20:12;-1.40;99.90
33699;DHT22;20032;52.436;13.312;2024-01-07T04:22:37;-1.50;99.90
33699;DHT22;20032;52.436;13.312;2024-01-07T04:25:03;-1.50;99.90
33699;DHT22;20032;52.436;13.312;2024-01-07T04:27:28;-1.50;99.90
33699;DHT22;20032;52.436;13.312;2024-01-07T04:29:54;-1.50;99.90
33699;DHT22;20032;52.436;13.312;2024-01-07T04:32:19;-1.50;99.90
33699;DHT22;20032;52.436;13.312;2024-01-07T04:34:45;-1.50;99.90
33699;DHT22;20032;52.436;13.312;2024-01-07T04:37:11;-1.50;99.90
33699;DHT22;20032;52.436;13.312;2024-01-07T04:39:36;-1.50;99.90
33699;DHT22;20032;52.436;13.312;2024-01-07T04:42:02;-1.50;99.90
33699;DHT22;20032;52.436;13.312;2024-01-07T04:44:27;-1.50;99.90
33699;DHT22;20032;52.436;13.312;2024-01-07T04:46:53;-1.50;99.90
33699;DHT22;20032;52.436;13.312;2024-01-07T04:49:18;-1.50;99.90
33699;DHT22;20032;52.436;13.312;2024-01-07T04:51:44;-1.50;99.90
33699;DHT22;20032;52.436;13.312;2024-01-07T04:54:09;-1.50;99.90
33699;DHT22;20032;52.436;13.312;2024-01-07T04:56:35;-1.50;99.90
33699;DHT22;20032;52.436;13.312;2024-01-07T04:59:00;-1.60;99.90
33699;DHT22;20032;52.436;13.312;2024-01-07T05:01:26;-1.60;99.90
33699;DHT22;20032;52.436;13.312;2024-01-07T05:03:51;-1.60;99.90
33699;DHT22;20032;52.436;13.312;2024-01-07T05:06:17;-1.60;99.90
33699;DHT22;20032;52.436;13.312;2024-01-07T05:08:42;-1.60;99.90
33699;DHT22;20032;52.436;13.312;2024-01-07T05:11:08;-1.60;99.90
33699;DHT22;20032;52.436;13.312;2024-01-07T05:13:35;-1.60;99.90
33699;DHT22;20032;52.436;13.312;2024-01-07T05:16:00;-1.60;99.90
33699;DHT22;20032;52.436;13.312;2024-01-07T05:18:26;-1.60;99.90
33699;DHT22;20032;52.436;13.312;2024-01-07T05:20:52;-1.60;99.90
33699;DHT22;20032;52.436;13.312;2024-01-07T05:23:18;-1.70;99.90
33699;DHT22;20032;52.436;13.312;2024-01-07T05:25:44;-1.70;99.90
33699;DHT22;20032;52.436;13.312;2024-01-07T05:28:11;-1.60;99.90
33699;DHT22;20032;52.436;13.312;2024-01-07T05:30:36;-1.60;99.90
33699;DHT22;20032;52.436;13.312;2024-01-07T05:33:02;-1.60;99.90
33699;DHT22;20032;52.436;13.312;2024-01-07T05:35:27;-1.60;99.90
33699;DHT22;20032;52.436;13.312;2024-01-07T05:37:53;-1.60;99.90
33699;DHT22;20032;52.436;13.312;2024-01-07T05:40:18;-1.70;99.90
33699;DHT22;20032;52.436;13.312;2024-01-07T05:42:44;-1.70;99.90
33699;DHT22;20032;52.436;13.312;2024-01-07T05:45:09;-1.60;99.90
33699;DHT22;20032;52.436;13.312;2024-01-07T05:47:35;-1.70;99.90
33699;DHT22;20032;52.436;13.312;2024-01-07T05:50:01;-1.70;99.90
33699;DHT22;20032;52.436;13.312;2024-01-07T05:52:27;-1.70;99.90
33699;DHT22;20032;52.436;13.312;2024-01-07T05:54:53;-1.70;99.90
33699;DHT22;20032;52.436;13.312;2024-01-07T05:57:18;-1.70;99.90
33699;DHT22;20032;52.436;13.312;2024-01-07T05:59:44;-1.70;99.90
33699;DHT22;20032;52.436;13.312;2024-01-07T06:02:09;-1.70;99.90
33699;DHT22;20032;52.436;13.312;2024-01-07T06:04:37;-1.80;99.90
33699;DHT22;20032;52.436;13.312;2024-01-07T06:07:02;-1.70;99.90
33699;DHT22;20032;52.436;13.312;2024-01-07T06:09:28;-1.80;99.90
33699;DHT22;20032;52.436;13.312;2024-01-07T06:11:54;-1.80;99.90
33699;DHT22;20032;52.436;13.312;2024-01-07T06:14:19;-1.70;99.90
33699;DHT22;20032;52.436;13.312;2024-01-07T06:16:44;-1.80;99.90
33699;DHT22;20032;52.436;13.312;2024-01-07T06:19:10;-1.70;99.90
33699;DHT22;20032;52.436;13.312;2024-01-07T06:21:35;-1.70;99.90
33699;DHT22;20032;52.436;13.312;2024-01-07T06:24:01;-1.70;99.90
33699;DHT22;20032;52.436;13.312;2024-01-07T06:26:26;-1.60;99.90
33699;DHT22;20032;52.436;13.312;2024-01-07T06:28:52;-1.60;99.90
33699;DHT22;20032;52.436;13.312;2024-01-07T06:31:17;-1.60;99.90
33699;DHT22;20032;52.436;13.312;2024-01-07T06:33:43;-1.60;99.90
33699;DHT22;20032;52.436;13.312;2024-01-07T06:36:08;-1.50;99.90
33699;DHT22;20032;52.436;13.312;2024-01-07T06:38:34;-1.60;99.90
33699;DHT22;20032;52.436;13.312;2024-01-07T06:40:59;-1.60;99.90
33699;DHT22;20032;52.436;13.312;2024-01-07T06:43:29;-1.50;99.90
33699;DHT22;20032;52.436;13.312;2024-01-07T06:45:54;-1.50;99.90
33699;DHT22;20032;52.436;13.312;2024-01-07T06:48:20;-1.50;99.90
33699;DHT22;20032;52.436;13.312;2024-01-07T06:50:45;-1.60;99.90
33699;DHT22;20032;52.436;13.312;2024-01-07T06:53:11;-1.60;99.90
33699;DHT22;20032;52.436;13.312;2024-01-07T06:55:36;-1.50;99.90
33699;DHT22;20032;52.436;13.312;2024-01-07T06:58:02;-1.60;99.90
33699;DHT22;20032;52.436;13.312;2024-01-07T07:00:27;-1.50;99.90
33699;DHT22;20032;52.436;13.312;2024-01-07T07:02:53;-1.50;99.90
33699;DHT22;20032;52.436;13.312;2024-01-07T07:05:18;-1.50;99.90
33699;DHT22;20032;52.436;13.312;2024-01-07T07:07:44;-1.50;99.90
33699;DHT22;20032;52.436;13.312;2024-01-07T07:10:10;-1.40;99.90
33699;DHT22;20032;52.436;13.312;2024-01-07T07:12:36;-1.50;99.90
33699;DHT22;20032;52.436;13.312;2024-01-07T07:15:01;-1.50;99.90
33699;DHT22;20032;52.436;13.312;2024-01-07T07:17:27;-1.40;99.90
33699;DHT22;20032;52.436;13.312;2024-01-07T07:19:52;-1.50;99.90
33699;DHT22;20032;52.436;13.312;2024-01-07T07:22:18;-1.40;99.90
33699;DHT22;20032;52.436;13.312;2024-01-07T07:24:43;-1.40;99.90
33699;DHT22;20032;52.436;13.312;2024-01-07T07:27:09;-1.40;99.90
33699;DHT22;20032;52.436;13.312;2024-01-07T07:29:34;-1.40;99.90
33699;DHT22;20032;52.436;13.312;2024-01-07T07:31:59;-1.30;99.90
33699;DHT22;20032;52.436;13.312;2024-01-07T07:34:25;-1.20;99.90
33699;DHT22;20032;52.436;13.312;2024-01-07T07:36:50;-1.30;99.90
33699;DHT22;20032;52.436;13.312;2024-01-07T07:39:17;-1.30;99.90
33699;DHT22;20032;52.436;13.312;2024-01-07T07:41:42;-1.30;99.90
33699;DHT22;20032;52.436;13.312;2024-01-07T07:44:08;-1.20;99.90
33699;DHT22;20032;52.436;13.312;2024-01-07T07:46:33;-1.10;99.90
33699;DHT22;20032;52.436;13.312;2024-01-07T07:48:59;-1.10;99.90
33699;DHT22;20032;52.436;13.312;2024-01-07T07:51:26;-1.10;99.90
33699;DHT22;20032;52.436;13.312;2024-01-07T07:53:51;-1.20;99.90
33699;DHT22;20032;52.436;13.312;2024-01-07T07:56:17;-1.10;99.90
33699;DHT22;20032;52.436;13.312;2024-01-07T07:58:44;-1.00;99.90
33699;DHT22;20032;52.436;13.312;2024-01-07T08:01:10;-1.00;99.90
33699;DHT22;20032;52.436;13.312;2024-01-07T08:03:36;-1.00;99.90
33699;DHT22;20032;52.436;13.312;2024-01-07T08:06:02;-0.90;99.90
33699;DHT22;20032;52.436;13.312;2024-01-07T08:08:27;-1.00;99.90
33699;DHT22;20032;52.436;13.312;2024-01-07T08:10:53;-0.90;99.90
33699;DHT22;20032;52.436;13.312;2024-01-07T08:13:19;-0.90;99.90
33699;DHT22;20032;52.436;13.312;2024-01-07T08:15:44;-0.90;99.90
33699;DHT22;20032;52.436;13.312;2024-01-07T08:18:10;-0.90;99.90
33699;DHT22;20032;52.436;13.312;2024-01-07T08:20:35;-0.90;99.90
33699;DHT22;20032;52.436;13.312;2024-01-07T08:23:01;-0.80;99.90
33699;DHT22;20032;52.436;13.312;2024-01-07T08:25:26;-0.80;99.90
33699;DHT22;20032;52.436;13.312;2024-01-07T08:27:52;-0.90;99.90
33699;DHT22;20032;52.436;13.312;2024-01-07T08:30:17;-0.90;99.90
33699;DHT22;20032;52.436;13.312;2024-01-07T08:32:43;-0.80;99.90
33699;DHT22;20032;52.436;13.312;2024-01-07T08:35:08;-0.80;99.90
33699;DHT22;20032;52.436;13.312;2024-01-07T08:37:34;-0.80;99.90
33699;DHT22;20032;52.436;13.312;2024-01-07T08:40:00;-0.70;99.90
33699;DHT22;20032;52.436;13.312;2024-01-07T08:42:27;-0.70;99.90
33699;DHT22;20032;52.436;13.312;2024-01-07T08:44:54;-0.60;99.90
33699;DHT22;20032;52.436;13.312;2024-01-07T08:47:20;-0.60;99.90
33699;DHT22;20032;52.436;13.312;2024-01-07T08:49:45;-0.50;99.90
33699;DHT22;20032;52.436;13.312;2024-01-07T08:52:11;-0.50;99.90
33699;DHT22;20032;52.436;13.312;2024-01-07T08:54:36;-0.40;99.90
33699;DHT22;20032;52.436;13.312;2024-01-07T08:57:02;-0.40;99.90
33699;DHT22;20032;52.436;13.312;2024-01-07T08:59:27;-0.50;99.90
33699;DHT22;20032;52.436;13.312;2024-01-07T09:01:53;-0.50;99.90
33699;DHT22;20032;52.436;13.312;2024-01-07T09:04:18;-0.40;99.90
33699;DHT22;20032;52.436;13.312;2024-01-07T09:06:44;-0.40;99.90
33699;DHT22;20032;52.436;13.312;2024-01-07T09:09:10;-0.30;99.90
33699;DHT22;20032;52.436;13.312;2024-01-07T09:11:36;-0.40;99.90
33699;DHT22;20032;52.436;13.312;2024-01-07T09:14:02;-0.40;99.90
33699;DHT22;20032;52.436;13.312;2024-01-07T09:16:29;-0.30;99.90
33699;DHT22;20032;52.436;13.312;2024-01-07T09:18:54;-0.30;99.90
33699;DHT22;20032;52.436;13.312;2024-01-07T09:21:20;-0.20;99.90
33699;DHT22;20032;52.436;13.312;2024-01-07T09:23:45;-0.20;99.90
33699;DHT22;20032;52.436;13.312;2024-01-07T09:26:11;-0.20;99.90
33699;DHT22;20032;52.436;13.312;2024-01-07T09:28:36;-0.10;99.90
33699;DHT22;20032;52.436;13.312;2024-01-07T09:31:02;-0.10;99.90
33699;DHT22;20032;52.436;13.312;2024-01-07T09:33:27;-0.10;99.90
33699;DHT22;20032;52.436;13.312;2024-01-07T09:35:52;0.00;99.90
33699;DHT22;20032;52.436;13.312;2024-01-07T09:38:19;0.00;99.90
33699;DHT22;20032;52.436;13.312;2024-01-07T09:40:45;0.00;99.90
33699;DHT22;20032;52.436;13.312;2024-01-07T09:43:11;0.00;99.90
33699;DHT22;20032;52.436;13.312;2024-01-07T09:45:38;0.00;99.90
33699;DHT22;20032;52.436;13.312;2024-01-07T09:48:06;0.00;99.90
33699;DHT22;20032;52.436;13.312;2024-01-07T09:50:32;0.10;99.90
33699;DHT22;20032;52.436;13.312;2024-01-07T09:52:58;0.10;99.90
33699;DHT22;20032;52.436;13.312;2024-01-07T09:55:37;0.10;99.90
33699;DHT22;20032;52.436;13.312;2024-01-07T09:58:04;0.10;99.90
33699;DHT22;20032;52.436;13.312;2024-01-07T10:00:30;0.20;99.90
33699;DHT22;20032;52.436;13.312;2024-01-07T10:02:56;0.20;99.90
33699;DHT22;20032;52.436;13.312;2024-01-07T10:05:22;0.20;99.90
33699;DHT22;20032;52.436;13.312;2024-01-07T10:07:47;0.30;99.90
33699;DHT22;20032;52.436;13.312;2024-01-07T10:10:15;0.40;99.90
33699;DHT22;20032;52.436;13.312;2024-01-07T10:12:40;0.40;99.90
33699;DHT22;20032;52.436;13.312;2024-01-07T10:15:06;0.40;99.90
33699;DHT22;20032;52.436;13.312;2024-01-07T10:17:33;0.30;99.90
33699;DHT22;20032;52.436;13.312;2024-01-07T10:19:58;0.40;99.90
33699;DHT22;20032;52.436;13.312;2024-01-07T10:22:24;0.40;99.90
33699;DHT22;20032;52.436;13.312;2024-01-07T10:24:51;0.30;99.90
33699;DHT22;20032;52.436;13.312;2024-01-07T10:27:16;0.30;99.90
33699;DHT22;20032;52.436;13.312;2024-01-07T10:29:42;0.20;99.90
33699;DHT22;20032;52.436;13.312;2024-01-07T10:32:08;0.20;99.90
33699;DHT22;20032;52.436;13.312;2024-01-07T10:34:35;0.20;99.90
33699;DHT22;20032;52.436;13.312;2024-01-07T10:37:03;0.20;99.90
33699;DHT22;20032;52.436;13.312;2024-01-07T10:39:30;0.30;99.90
33699;DHT22;20032;52.436;13.312;2024-01-07T10:41:56;0.40;99.90
33699;DHT22;20032;52.436;13.312;2024-01-07T10:44:25;0.40;99.90
33699;DHT22;20032;52.436;13.312;2024-01-07T10:46:53;0.50;99.90
33699;DHT22;20032;52.436;13.312;2024-01-07T10:49:20;0.50;99.90
33699;DHT22;20032;52.436;13.312;2024-01-07T10:52:08;0.40;99.90
33699;DHT22;20032;52.436;13.312;2024-01-07T10:54:35;0.30;99.90
33699;DHT22;20032;52.436;13.312;2024-01-07T10:57:09;0.30;99.90
33699;DHT22;20032;52.436;13.312;2024-01-07T10:59:38;0.20;99.90
33699;DHT22;20032;52.436;13.312;2024-01-07T11:02:04;0.20;99.90
33699;DHT22;20032;52.436;13.312;2024-01-07T11:04:42;0.30;99.90
33699;DHT22;20032;52.436;13.312;2024-01-07T11:07:34;0.40;99.90
33699;DHT22;20032;52.436;13.312;2024-01-07T11:10:10;0.40;99.90
33699;DHT22;20032;52.436;13.312;2024-01-07T11:12:36;0.40;99.90
33699;DHT22;20032;52.436;13.312;2024-01-07T11:15:03;0.50;99.90
33699;DHT22;20032;52.436;13.312;2024-01-07T11:17:41;0.50;99.90
33699;DHT22;20032;52.436;13.312;2024-01-07T11:20:24;0.40;99.90
33699;DHT22;20032;52.436;13.312;2024-01-07T11:22:52;0.40;99.90
33699;DHT22;20032;52.436;13.312;2024-01-07T11:25:33;0.50;99.90
33699;DHT22;20032;52.436;13.312;2024-01-07T11:28:00;0.40;99.90
33699;DHT22;20032;52.436;13.312;2024-01-07T11:30:26;0.50;99.90
33699;DHT22;20032;52.436;13.312;2024-01-07T11:33:00;0.60;99.90
33699;DHT22;20032;52.436;13.312;2024-01-07T11:35:54;0.50;99.90
33699;DHT22;20032;52.436;13.312;2024-01-07T11:38:19;0.60;99.90
33699;DHT22;20032;52.436;13.312;2024-01-07T11:40:47;0.70;99.90
33699;DHT22;20032;52.436;13.312;2024-01-07T11:43:14;0.60;99.90
33699;DHT22;20032;52.436;13.312;2024-01-07T11:45:39;0.70;99.90
33699;DHT22;20032;52.436;13.312;2024-01-07T11:48:05;0.60;99.90
33699;DHT22;20032;52.436;13.312;2024-01-07T11:50:31;0.50;99.90
33699;DHT22;20032;52.436;13.312;2024-01-07T11:52:56;0.60;99.90
33699;DHT22;20032;52.436;13.312;2024-01-07T11:55:22;0.70;99.90
33699;DHT22;20032;52.436;13.312;2024-01-07T11:57:48;0.70;99.90
33699;DHT22;20032;52.436;13.312;2024-01-07T12:00:14;0.70;99.90
33699;DHT22;20032;52.436;13.312;2024-01-07T12:02:40;0.60;99.90
33699;DHT22;20032;52.436;13.312;2024-01-07T12:05:05;0.60;99.90
33699;DHT22;20032;52.436;13.312;2024-01-07T12:07:32;0.60;99.90
33699;DHT22;20032;52.436;13.312;2024-01-07T12:09:57;0.60;99.90
33699;DHT22;20032;52.436;13.312;2024-01-07T12:12:24;0.60;99.90
33699;DHT22;20032;52.436;13.312;2024-01-07T12:14:50;0.60;99.90
33699;DHT22;20032;52.436;13.312;2024-01-07T12:17:17;0.60;99.90
33699;DHT22;20032;52.436;13.312;2024-01-07T12:19:43;0.50;99.90
33699;DHT22;20032;52.436;13.312;2024-01-07T12:22:08;0.50;99.90
33699;DHT22;20032;52.436;13.312;2024-01-07T12:24:34;0.50;99.90
33699;DHT22;20032;52.436;13.312;2024-01-07T12:27:04;0.60;99.90
33699;DHT22;20032;52.436;13.312;2024-01-07T12:29:30;0.70;99.90
33699;DHT22;20032;52.436;13.312;2024-01-07T12:31:55;0.60;99.90
33699;DHT22;20032;52.436;13.312;2024-01-07T12:34:21;0.50;99.90
33699;DHT22;20032;52.436;13.312;2024-01-07T12:36:49;0.60;99.90
33699;DHT22;20032;52.436;13.312;2024-01-07T12:39:14;0.70;99.90
33699;DHT22;20032;52.436;13.312;2024-01-07T12:41:40;0.70;99.90
33699;DHT22;20032;52.436;13.312;2024-01-07T12:44:05;0.70;99.90
33699;DHT22;20032;52.436;13.312;2024-01-07T12:46:34;0.70;99.90
33699;DHT22;20032;52.436;13.312;2024-01-07T12:48:59;0.60;99.90
33699;DHT22;20032;52.436;13.312;2024-01-07T12:51:25;0.70;99.90
33699;DHT22;20032;52.436;13.312;2024-01-07T12:53:50;0.70;99.90
33699;DHT22;20032;52.436;13.312;2024-01-07T12:56:16;0.80;99.90
33699;DHT22;20032;52.436;13.312;2024-01-07T12:58:41;0.80;99.90
33699;DHT22;20032;52.436;13.312;2024-01-07T13:01:07;0.90;99.90
33699;DHT22;20032;52.436;13.312;2024-01-07T13:03:32;0.80;99.90
33699;DHT22;20032;52.436;13.312;2024-01-07T13:05:58;0.80;99.90
33699;DHT22;20032;52.436;13.312;2024-01-07T13:08:23;1.00;99.90
33699;DHT22;20032;52.436;13.312;2024-01-07T13:10:51;1.00;99.90
33699;DHT22;20032;52.436;13.312;2024-01-07T13:13:17;1.10;99.90
33699;DHT22;20032;52.436;13.312;2024-01-07T13:15:43;1.00;99.90
33699;DHT22;20032;52.436;13.312;2024-01-07T13:18:09;1.00;99.90
33699;DHT22;20032;52.436;13.312;2024-01-07T13:20:37;0.90;99.90
33699;DHT22;20032;52.436;13.312;2024-01-07T13:23:05;0.90;99.90
33699;DHT22;20032;52.436;13.312;2024-01-07T13:25:30;0.90;99.90
33699;DHT22;20032;52.436;13.312;2024-01-07T13:27:56;1.00;99.90
33699;DHT22;20032;52.436;13.312;2024-01-07T13:30:21;1.00;99.90
33699;DHT22;20032;52.436;13.312;2024-01-07T13:32:47;0.90;99.90
33699;DHT22;20032;52.436;13.312;2024-01-07T13:35:14;0.90;99.90
33699;DHT22;20032;52.436;13.312;2024-01-07T13:37:40;1.00;99.90
33699;DHT22;20032;52.436;13.312;2024-01-07T13:40:07;0.90;99.90
33699;DHT22;20032;52.436;13.312;2024-01-07T13:42:37;0.90;99.90
33699;DHT22;20032;52.436;13.312;2024-01-07T13:45:03;0.90;99.90
33699;DHT22;20032;52.436;13.312;2024-01-07T13:47:29;0.90;99.90
33699;DHT22;20032;52.436;13.312;2024-01-07T13:49:54;0.90;99.90
33699;DHT22;20032;52.436;13.312;2024-01-07T13:52:20;0.90;99.90
33699;DHT22;20032;52.436;13.312;2024-01-07T13:54:45;0.90;99.90
33699;DHT22;20032;52.436;13.312;2024-01-07T13:57:11;0.90;99.90
33699;DHT22;20032;52.436;13.312;2024-01-07T13:59:38;0.90;99.90
33699;DHT22;20032;52.436;13.312;2024-01-07T14:02:05;0.90;99.90
33699;DHT22;20032;52.436;13.312;2024-01-07T14:04:30;1.00;99.90
33699;DHT22;20032;52.436;13.312;2024-01-07T14:06:57;1.00;99.90
33699;DHT22;20032;52.436;13.312;2024-01-07T14:09:23;1.00;99.90
33699;DHT22;20032;52.436;13.312;2024-01-07T14:11:48;1.00;99.90
33699;DHT22;20032;52.436;13.312;2024-01-07T14:14:14;0.90;99.90
33699;DHT22;20032;52.436;13.312;2024-01-07T14:16:39;1.00;99.90
33699;DHT22;20032;52.436;13.312;2024-01-07T14:19:05;0.90;99.90
33699;DHT22;20032;52.436;13.312;2024-01-07T14:21:31;0.90;99.90
33699;DHT22;20032;52.436;13.312;2024-01-07T14:23:57;0.90;99.90
33699;DHT22;20032;52.436;13.312;2024-01-07T14:26:22;0.90;99.90
33699;DHT22;20032;52.436;13.312;2024-01-07T14:28:49;0.90;99.90
33699;DHT22;20032;52.436;13.312;2024-01-07T14:31:16;0.80;99.90
33699;DHT22;20032;52.436;13.312;2024-01-07T14:33:42;0.90;99.90
33699;DHT22;20032;52.436;13.312;2024-01-07T14:36:07;0.90;99.90
33699;DHT22;20032;52.436;13.312;2024-01-07T14:38:39;0.90;99.90
33699;DHT22;20032;52.436;13.312;2024-01-07T14:41:05;1.00;99.90
33699;DHT22;20032;52.436;13.312;2024-01-07T14:43:30;1.00;99.90
33699;DHT22;20032;52.436;13.312;2024-01-07T14:45:57;1.00;99.90
33699;DHT22;20032;52.436;13.312;2024-01-07T14:48:22;1.10;99.90
33699;DHT22;20032;52.436;13.312;2024-01-07T14:50:48;1.00;99.90
33699;DHT22;20032;52.436;13.312;2024-01-07T14:53:13;1.00;99.90
33699;DHT22;20032;52.436;13.312;2024-01-07T14:55:39;0.90;99.90
33699;DHT22;20032;52.436;13.312;2024-01-07T14:58:05;0.90;99.90
33699;DHT22;20032;52.436;13.312;2024-01-07T15:00:30;0.90;99.90
33699;DHT22;20032;52.436;13.312;2024-01-07T15:02:56;1.00;99.90
33699;DHT22;20032;52.436;13.312;2024-01-07T15:05:22;1.10;99.90
33699;DHT22;20032;52.436;13.312;2024-01-07T15:07:47;1.00;99.90
33699;DHT22;20032;52.436;13.312;2024-01-07T15:10:17;1.00;99.90
33699;DHT22;20032;52.436;13.312;2024-01-07T15:12:44;1.10;99.90
33699;DHT22;20032;52.436;13.312;2024-01-07T15:15:09;1.10;99.90
33699;DHT22;20032;52.436;13.312;2024-01-07T15:17:36;1.00;99.90